Time;durP1;ratioP1;P1;durP2;ratioP2;P2;SDS_P1;SDS_P2;PMS_P1;PMS_P2;Temp;Humidity;BMP_temperature;BMP_pressure;BME280_temperature;BME280_humidity;BME280_pressure;Samples;Min_cycle;Max_cycle;Signal;HPM_P1;HPM_P2
2022/07/10 00:00:12;;;;;;;5.43;3.80;;;17.80;99.90;;;16.98;78.25;97998.72;5093955;28;20402;-74
2022/07/10 00:02:39;;;;;;;4.13;3.35;;;17.70;99.90;;;16.96;77.93;98000.84;5091826;28;20391;-75
2022/07/10 00:05:06;;;;;;;4.80;3.42;;;17.70;99.90;;;16.97;77.90;97994.44;5091876;28;20394;-74
2022/07/10 00:07:32;;;;;;;5.63;3.75;;;17.70;99.90;;;17.00;77.13;97991.19;5092021;28;20451;-74
2022/07/10 00:09:58;;;;;;;3.90;3.30;;;17.80;99.90;;;16.94;77.93;97992.28;5091228;28;20389;-74
2022/07/10 00:12:24;;;;;;;4.70;3.28;;;17.70;99.90;;;16.97;77.79;97993.63;5091811;28;20984;-75
2022/07/10 00:14:50;;;;;;;3.88;3.28;;;17.80;99.90;;;16.96;78.19;97986.69;5091618;28;20406;-75
2022/07/10 00:17:17;;;;;;;3.30;2.93;;;17.80;99.90;;;17.02;77.76;97988.25;5091761;28;20518;-74
2022/07/10 00:19:44;;;;;;;3.90;3.15;;;17.80;99.90;;;17.01;78.27;97984.75;5091007;28;20405;-75
2022/07/10 00:22:09;;;;;;;4.28;3.47;;;17.80;99.90;;;17.04;78.68;97986.09;5091575;28;20398;-74
2022/07/10 00:24:35;;;;;;;5.60;3.83;;;17.80;99.90;;;17.09;76.64;97980.69;5091613;28;20429;-74
2022/07/10 00:27:02;;;;;;;3.77;3.33;;;17.80;99.90;;;17.11;76.52;97983.91;5091608;28;20401;-74
2022/07/10 00:29:28;;;;;;;4.72;3.38;;;17.90;99.90;;;17.11;76.98;97978.56;5090910;28;20427;-74
2022/07/10 00:31:54;;;;;;;4.63;3.55;;;17.90;99.90;;;17.16;76.46;97980.38;5073163;28;20417;-72
2022/07/10 00:34:21;;;;;;;5.18;3.17;;;17.90;99.90;;;17.15;76.74;97979.59;5091273;28;20421;-75
2022/07/10 00:36:47;;;;;;;4.15;3.28;;;17.90;99.90;;;17.15;77.43;97968.88;5091179;28;20477;-75
2022/07/10 00:39:13;;;;;;;3.80;2.95;;;17.90;99.90;;;17.16;77.51;97977.72;5090640;28;20975;-75
2022/07/10 00:41:39;;;;;;;3.63;3.17;;;17.90;99.90;;;17.20;77.40;97974.22;5090993;28;20413;-74
2022/07/10 00:44:05;;;;;;;4.80;3.30;;;17.90;99.90;;;17.23;76.43;97970.97;5091105;28;20405;-75
2022/07/10 00:46:31;;;;;;;4.05;3.03;;;18.00;99.90;;;17.25;76.23;97976.03;5091097;28;20398;-75
2022/07/10 00:48:58;;;;;;;5.18;3.75;;;18.00;99.90;;;17.26;75.86;97975.78;5090498;28;20726;-74
2022/07/10 00:51:29;;;;;;;5.85;3.70;;;18.00;99.90;;;17.28;75.31;97973.63;5090851;28;20771;-74
2022/07/10 00:53:56;;;;;;;4.63;3.35;;;18.00;99.90;;;17.29;75.12;97977.09;5072781;28;20420;-74
2022/07/10 00:56:25;;;;;;;6.50;3.40;;;18.10;99.90;;;17.27;74.88;97980.03;5072734;28;20772;-74
2022/07/10 00:58:51;;;;;;;3.83;3.17;;;18.10;99.90;;;17.26;75.05;97967.75;5090418;28;20766;-74
2022/07/10 01:01:18;;;;;;;3.60;3.10;;;18.00;99.90;;;17.23;75.15;97965.63;5090866;28;20402;-74
2022/07/10 01:03:45;;;;;;;4.40;3.33;;;18.00;99.90;;;17.23;74.96;97967.50;5090928;28;21130;-74
2022/07/10 01:06:12;;;;;;;4.70;3.47;;;18.00;99.90;;;17.20;75.00;97962.72;5090834;28;20390;-74
2022/07/10 01:08:39;;;;;;;4.15;3.22;;;18.00;99.90;;;17.13;75.16;97954.22;5090164;28;21022;-74
2022/07/10 01:11:05;;;;;;;4.82;3.55;;;17.90;99.90;;;17.11;74.87;97967.06;5090521;28;20402;-73
2022/07/10 01:13:32;;;;;;;3.92;3.17;;;17.90;99.90;;;17.06;74.99;97961.75;5089872;28;20420;-74
2022/07/10 01:15:58;;;;;;;5.07;3.38;;;17.90;99.90;;;17.01;74.80;97957.22;5090556;28;20397;-74
2022/07/10 01:18:25;;;;;;;5.03;3.65;;;17.80;99.90;;;16.98;74.71;97953.25;5089862;28;20437;-73
2022/07/10 01:20:54;;;;;;;5.35;4.03;;;17.70;99.90;;;16.97;74.50;97950.84;5090302;28;20444;-73
2022/07/10 01:23:21;;;;;;;4.57;3.35;;;17.70;99.90;;;16.91;74.63;97963.44;5090586;28;20427;-74
2022/07/10 01:25:47;;;;;;;6.30;4.05;;;17.70;99.90;;;16.91;74.57;97951.94;5090303;28;20434;-73
2022/07/10 01:28:13;;;;;;;4.90;3.80;;;17.70;99.90;;;16.94;74.25;97959.41;5089987;28;20454;-73
2022/07/10 01:30:39;;;;;;;6.93;4.00;;;17.70;99.90;;;16.96;73.59;97958.06;5090087;28;20402;-73
2022/07/10 01:33:05;;;;;;;5.85;3.65;;;17.70;99.90;;;16.94;74.01;97964.75;5090405;28;20915;-73
2022/07/10 01:35:31;;;;;;;4.85;3.75;;;17.70;99.90;;;16.90;74.45;97961.84;5089982;28;20420;-73
2022/07/10 01:37:59;;;;;;;4.90;3.83;;;17.70;99.90;;;16.92;74.41;97961.56;5090275;28;20500;-73
2022/07/10 01:40:25;;;;;;;5.60;3.70;;;17.70;99.90;;;16.90;74.35;97953.81;5089534;28;20741;-74
2022/07/10 01:42:51;;;;;;;5.57;4.07;;;17.70;99.90;;;16.90;74.22;97953.81;5090338;28;20440;-73
2022/07/10 01:45:17;;;;;;;5.23;4.20;;;17.70;99.90;;;16.91;74.28;97950.09;5090134;28;20489;-73
2022/07/10 01:47:43;;;;;;;6.70;4.30;;;17.70;99.90;;;16.89;74.31;97948.75;5090194;28;20410;-73
2022/07/10 01:50:10;;;;;;;5.38;4.30;;;17.60;99.90;;;16.87;74.23;97956.25;5071158;28;20776;-73
2022/07/10 01:52:36;;;;;;;7.22;4.88;;;17.60;99.90;;;16.88;74.13;97952.50;5090186;28;20409;-73
2022/07/10 01:55:04;;;;;;;6.75;4.30;;;17.60;99.90;;;16.83;74.19;97957.88;5089747;28;20504;-73
2022/07/10 01:57:30;;;;;;;7.88;4.82;;;17.60;99.90;;;16.82;74.32;97969.66;5090122;28;20394;-73
2022/07/10 01:59:56;;;;;;;6.90;5.43;;;17.60;99.90;;;16.81;74.36;97962.72;5089402;28;20406;-73
2022/07/10 02:02:22;;;;;;;8.25;5.63;;;17.60;99.90;;;16.76;74.27;97962.75;5089836;28;20425;-74
2022/07/10 02:04:48;;;;;;;6.43;4.72;;;17.50;99.90;;;16.68;74.79;97958.78;5089971;28;20430;-73
2022/07/10 02:07:16;;;;;;;6.05;4.95;;;17.50;99.90;;;16.69;74.98;97964.94;5090121;28;20401;-73
2022/07/10 02:09:44;;;;;;;7.25;5.78;;;17.50;99.90;;;16.67;75.18;97973.22;5089273;28;20433;-73
2022/07/10 02:12:13;;;;;;;9.02;6.00;;;17.40;99.90;;;16.64;75.32;97963.06;5089735;28;20402;-73
2022/07/10 02:14:39;;;;;;;10.50;6.32;;;17.40;99.90;;;16.61;75.64;97968.97;5089709;28;20417;-73
2022/07/10 02:17:06;;;;;;;8.93;6.03;;;17.40;99.90;;;16.59;75.77;97966.53;5089945;28;20440;-74
2022/07/10 02:19:33;;;;;;;9.83;6.73;;;17.40;99.90;;;16.57;76.06;97967.88;5088398;28;20414;-74
2022/07/10 02:21:59;;;;;;;14.30;7.47;;;17.30;99.90;;;16.54;76.34;97969.22;5086009;28;20498;-74
2022/07/10 02:24:26;;;;;;;11.15;8.15;;;17.30;99.90;;;16.55;76.53;97973.50;5091316;28;20394;-75
2022/07/10 02:26:52;;;;;;;10.30;8.47;;;17.30;99.90;;;16.51;76.66;97960.97;5093236;28;20491;-75
2022/07/10 02:29:19;;;;;;;10.77;9.35;;;17.30;99.90;;;16.50;76.89;97972.72;5071685;28;20464;-74
2022/07/10 02:31:45;;;;;;;9.83;7.63;;;17.30;99.90;;;16.49;77.26;97973.78;5073366;28;20421;-75
2022/07/10 02:34:13;;;;;;;11.05;8.45;;;17.30;99.90;;;16.48;77.54;97969.53;5073455;28;20418;-74
2022/07/10 02:36:39;;;;;;;10.27;8.60;;;17.30;99.90;;;16.48;77.74;97966.84;5073213;28;20524;-74
2022/07/10 02:39:06;;;;;;;9.13;7.30;;;17.30;99.90;;;16.48;77.85;97969.53;5072851;28;20434;-74
2022/07/10 02:41:32;;;;;;;13.32;9.05;;;17.30;99.90;;;16.48;77.67;97975.66;5073291;28;20889;-75
2022/07/10 02:43:59;;;;;;;11.45;8.65;;;17.30;99.90;;;16.46;78.21;97980.50;5073308;28;20482;-74
2022/07/10 02:46:26;;;;;;;13.93;10.02;;;17.20;99.90;;;16.47;78.13;97979.41;5073304;28;20463;-74
2022/07/10 02:48:52;;;;;;;14.17;9.73;;;17.30;99.90;;;16.46;78.23;97977.84;5072769;28;20540;-74
2022/07/10 02:51:18;;;;;;;15.02;10.23;;;17.30;99.90;;;16.45;78.29;97989.59;5071464;28;20412;-74
2022/07/10 02:53:44;;;;;;;12.15;10.15;;;17.20;99.90;;;16.44;78.34;97985.31;5072986;28;20465;-74
2022/07/10 02:56:10;;;;;;;13.23;10.20;;;17.20;99.90;;;16.43;78.56;97983.72;5084864;28;20398;-72
2022/07/10 02:58:39;;;;;;;11.13;8.38;;;17.20;99.90;;;16.44;78.68;97973.81;5099727;28;20403;-74
2022/07/10 03:01:05;;;;;;;12.45;9.93;;;17.20;99.90;;;16.43;78.87;97988.25;5093776;28;20409;-74
2022/07/10 03:03:32;;;;;;;14.23;10.68;;;17.20;99.90;;;16.42;78.67;97986.66;5093158;28;20447;-74
2022/07/10 03:05:59;;;;;;;13.05;10.07;;;17.20;99.90;;;16.37;79.06;97986.69;5101224;28;20810;-74
2022/07/10 03:08:25;;;;;;;16.38;10.75;;;17.20;99.90;;;16.35;79.02;97991.50;5097733;28;20412;-74
2022/07/10 03:10:51;;;;;;;13.30;10.27;;;17.10;99.90;;;16.32;79.12;97995.50;5092561;28;20514;-74
2022/07/10 03:13:17;;;;;;;14.13;10.43;;;17.10;99.90;;;16.33;79.42;97988.28;5074628;28;20927;-74
2022/07/10 03:15:42;;;;;;;13.35;11.20;;;17.10;99.90;;;16.31;79.47;97991.25;5100451;28;20408;-74
2022/07/10 03:18:09;;;;;;;14.18;10.27;;;17.10;99.90;;;16.30;79.71;97994.19;5092709;28;20414;-74
2022/07/10 03:20:36;;;;;;;15.68;11.43;;;17.10;99.90;;;16.33;79.57;97989.09;5099359;28;20903;-74
2022/07/10 03:23:02;;;;;;;16.33;12.30;;;17.10;99.90;;;16.36;79.38;97996.56;5096107;28;20418;-74
2022/07/10 03:25:28;;;;;;;12.60;10.00;;;17.10;99.90;;;16.36;79.65;97995.78;5084636;28;20387;-74
2022/07/10 03:27:54;;;;;;;13.77;10.18;;;17.10;99.90;;;16.37;79.53;97990.16;5072677;28;20395;-72
2022/07/10 03:30:20;;;;;;;13.00;9.77;;;17.10;99.90;;;16.40;79.75;97988.78;5071711;28;20400;-73
2022/07/10 03:32:46;;;;;;;10.95;9.50;;;17.10;99.90;;;16.38;79.64;97994.44;5072172;28;20482;-73
2022/07/10 03:35:12;;;;;;;12.13;10.03;;;17.10;99.90;;;16.40;79.61;97994.94;5087998;22;20411;-75
2022/07/10 03:37:39;;;;;;;11.15;8.45;;;17.10;99.90;;;16.37;79.65;97990.16;5090310;28;20429;-75
2022/07/10 03:40:06;;;;;;;11.07;8.95;;;17.20;99.90;;;16.41;79.52;97995.75;5091574;28;20390;-76
2022/07/10 03:42:32;;;;;;;14.48;10.77;;;17.10;99.90;;;16.42;79.36;97992.81;5082700;28;20767;-76
2022/07/10 03:44:58;;;;;;;12.35;10.13;;;17.20;99.90;;;16.41;79.29;97993.06;5092097;28;20413;-76
2022/07/10 03:47:24;;;;;;;13.95;10.30;;;17.20;99.90;;;16.40;79.34;97991.47;5071967;28;20406;-75
2022/07/10 03:49:50;;;;;;;12.07;10.27;;;17.10;99.90;;;16.34;79.27;97993.38;5070943;28;20948;-75
2022/07/10 03:52:16;;;;;;;14.80;10.05;;;17.10;99.90;;;16.34;79.43;97993.38;5071726;28;20461;-75
2022/07/10 03:54:44;;;;;;;13.90;10.60;;;17.10;99.90;;;16.33;79.45;97988.28;5071639;28;20769;-76
2022/07/10 03:59:54;;;;;;;13.40;10.13;;;17.10;99.90;;;16.26;79.98;97985.91;5071375;28;20448;-76
2022/07/10 04:02:20;;;;;;;11.68;8.95;;;17.00;99.90;;;16.26;79.97;97985.91;5071515;28;20490;-75
2022/07/10 04:04:46;;;;;;;14.00;9.97;;;17.00;99.90;;;16.29;79.97;97988.06;5071571;28;20808;-75
2022/07/10 04:07:12;;;;;;;12.30;9.10;;;17.00;99.90;;;16.29;79.92;97988.06;5071538;28;20807;-75
2022/07/10 04:09:39;;;;;;;13.45;9.93;;;17.10;99.90;;;16.33;80.02;97988.28;5070842;28;20460;-75
2022/07/10 04:12:07;;;;;;;16.07;10.47;;;17.10;99.90;;;16.31;79.75;97993.94;5071410;28;20533;-75
2022/07/10 04:14:33;;;;;;;12.38;9.73;;;17.10;99.90;;;16.33;79.73;97991.75;5071373;28;20412;-76
2022/07/10 04:16:59;;;;;;;10.70;8.88;;;17.10;99.90;;;16.34;79.91;97982.69;5070945;28;20411;-75
2022/07/10 04:19:25;;;;;;;14.47;10.53;;;17.10;99.90;;;16.34;79.81;97985.34;5070887;28;20415;-76
2022/07/10 04:21:51;;;;;;;14.63;9.55;;;17.10;99.90;;;16.34;79.89;97982.69;5071044;28;20408;-76
2022/07/10 04:24:17;;;;;;;11.20;8.82;;;17.10;99.90;;;16.37;80.19;97984.81;5077575;28;20442;-76
2022/07/10 04:26:43;;;;;;;12.80;8.95;;;17.10;99.90;;;16.39;79.54;97992.56;5071113;28;20407;-76
2022/07/10 04:29:11;;;;;;;10.65;7.80;;;17.10;99.90;;;16.36;79.83;97995.78;5070599;28;20395;-75
2022/07/10 04:31:36;;;;;;;12.32;8.35;;;17.10;99.90;;;16.39;79.58;97992.56;5071148;28;20404;-75
2022/07/10 04:34:02;;;;;;;10.93;8.38;;;17.10;99.90;;;16.36;79.19;97990.44;5071064;28;20829;-76
2022/07/10 04:36:30;;;;;;;10.20;7.55;;;17.10;99.90;;;16.32;79.25;97992.84;5071052;28;20415;-75
2022/07/10 04:38:56;;;;;;;12.27;8.00;;;17.10;99.90;;;16.29;79.20;97992.59;5070646;28;20407;-76
2022/07/10 04:41:22;;;;;;;13.00;9.23;;;17.10;99.90;;;16.25;79.22;97986.97;5070846;28;20392;-76
2022/07/10 04:43:48;;;;;;;13.18;8.30;;;17.00;99.90;;;16.19;79.40;97996.88;5070999;28;20396;-76
2022/07/10 04:46:15;;;;;;;9.37;7.83;;;17.00;99.90;;;16.18;79.07;97992.63;5071046;28;20894;-74
2022/07/10 04:48:41;;;;;;;11.05;6.88;;;17.00;99.90;;;16.16;79.25;98002.75;5070315;28;20411;-75
2022/07/10 04:51:07;;;;;;;13.37;8.57;;;16.90;99.90;;;16.14;79.09;98001.44;5070858;28;21100;-76
2022/07/10 04:53:33;;;;;;;8.98;6.80;;;16.90;99.90;;;16.13;78.98;97997.19;5070868;28;20974;-76
2022/07/10 04:55:59;;;;;;;11.02;6.97;;;16.90;99.90;;;16.12;79.21;97999.03;5070712;28;20412;-76
2022/07/10 04:58:25;;;;;;;10.35;6.45;;;16.90;99.90;;;16.12;79.14;97999.03;5070342;28;20796;-76
2022/07/10 05:00:51;;;;;;;9.65;6.32;;;16.90;99.90;;;16.15;78.99;98001.19;5070617;28;20407;-76
2022/07/10 05:03:19;;;;;;;12.83;6.13;;;16.90;99.90;;;16.15;78.63;98003.84;5070827;28;20881;-76
2022/07/10 05:05:45;;;;;;;9.38;5.70;;;16.90;99.90;;;16.16;78.48;97996.66;5070502;28;20396;-76
2022/07/10 05:08:10;;;;;;;7.63;5.25;;;16.90;99.90;;;16.18;78.31;98007.84;5070144;28;20486;-76
2022/07/10 05:10:36;;;;;;;6.70;5.17;;;17.00;99.90;;;16.25;77.92;98011.03;5070288;28;20453;-76
2022/07/10 05:13:02;;;;;;;7.53;4.90;;;16.90;99.90;;;16.33;77.39;98015.00;5070659;28;20427;-76
2022/07/10 05:15:28;;;;;;;7.80;4.70;;;17.00;99.90;;;16.36;77.49;98014.47;5070310;28;20892;-76
2022/07/10 05:17:54;;;;;;;6.72;4.50;;;17.10;99.90;;;16.41;77.26;98015.25;5070684;28;20403;-77
2022/07/10 05:20:22;;;;;;;7.80;4.45;;;17.10;99.90;;;16.47;77.02;98024.84;5069512;28;20761;-77
2022/07/10 05:22:48;;;;;;;9.32;5.15;;;17.20;99.90;;;16.49;76.41;98020.03;5070578;28;20482;-76
2022/07/10 05:25:14;;;;;;;8.52;4.97;;;17.20;99.90;;;16.48;76.24;98014.94;5070296;28;20399;-76
2022/07/10 05:27:39;;;;;;;6.13;4.28;;;17.20;99.90;;;16.50;76.45;98013.63;5070250;28;20465;-76
2022/07/10 05:30:07;;;;;;;7.25;5.10;;;17.20;99.90;;;16.55;74.95;98023.47;5067125;28;20422;-76
2022/07/10 05:32:33;;;;;;;8.48;4.22;;;17.20;99.90;;;16.59;75.36;98025.34;5069375;28;20923;-76
2022/07/10 05:34:59;;;;;;;6.78;4.10;;;17.30;99.90;;;16.67;75.36;98023.19;5069740;28;20930;-76
2022/07/10 05:37:26;;;;;;;8.95;4.45;;;17.40;99.90;;;16.72;75.26;98021.31;5070068;28;20403;-76
2022/07/10 05:39:52;;;;;;;6.72;4.18;;;17.40;99.90;;;16.77;74.66;98023.13;5069535;28;20396;-76
2022/07/10 05:42:18;;;;;;;6.78;3.63;;;17.50;99.90;;;16.86;74.96;98024.16;5069981;28;20406;-77
2022/07/10 05:44:44;;;;;;;7.43;3.78;;;17.60;99.90;;;16.93;73.99;98024.66;5069788;28;20922;-77
2022/07/10 05:47:10;;;;;;;8.00;3.78;;;17.60;99.90;;;16.96;73.43;98022.25;5068704;28;20486;-76
2022/07/10 05:49:36;;;;;;;6.43;3.47;;;17.70;99.90;;;16.99;72.74;98029.69;5051148;28;20861;-76
2022/07/10 05:52:03;;;;;;;5.17;3.23;;;17.70;99.90;;;16.98;72.07;98024.66;5070479;28;20762;-78
2022/07/10 05:54:30;;;;;;;9.02;3.47;;;17.70;99.90;;;16.98;71.85;98038.03;5070837;28;20451;-75
2022/07/10 05:56:57;;;;;;;8.50;3.30;;;17.70;99.90;;;16.98;71.97;98048.72;5071984;28;21041;-76
2022/07/10 05:59:23;;;;;;;7.63;3.22;;;17.70;99.90;;;16.98;71.84;98060.22;5050958;28;20857;-76
2022/07/10 06:01:49;;;;;;;4.68;2.70;;;17.70;99.90;;;16.97;72.05;98052.47;5069829;28;20411;-77
2022/07/10 06:04:15;;;;;;;6.05;2.95;;;17.70;99.90;;;16.96;71.64;98040.97;5069882;28;20464;-75
2022/07/10 06:06:41;;;;;;;7.07;3.23;;;17.70;99.90;;;16.97;71.60;98047.13;5062010;28;20421;-74
2022/07/10 06:09:06;;;;;;;5.40;2.77;;;17.70;99.90;;;16.96;71.74;98040.16;5060650;28;20408;-75
2022/07/10 06:11:34;;;;;;;5.20;2.93;;;17.70;99.90;;;16.95;71.68;98039.38;5065087;28;20423;-76
2022/07/10 06:14:00;;;;;;;5.57;2.45;;;17.70;99.90;;;16.96;71.46;98051.66;5060675;28;20445;-75
2022/07/10 06:16:26;;;;;;;5.95;2.85;;;17.70;99.90;;;16.99;71.02;98051.09;5061073;28;20763;-76
2022/07/10 06:18:52;;;;;;;9.50;3.30;;;17.70;99.90;;;17.04;71.03;98047.63;5058022;28;20496;-76
2022/07/10 06:21:21;;;;;;;3.90;2.40;;;17.70;99.90;;;17.13;71.12;98050.50;5059287;28;20464;-76
2022/07/10 06:23:47;;;;;;;4.82;2.40;;;17.80;99.90;;;17.18;70.57;98045.91;5060110;28;20403;-76
2022/07/10 06:26:13;;;;;;;4.60;2.20;;;17.80;99.90;;;17.27;70.28;98049.63;5058588;28;20448;-76
2022/07/10 06:28:40;;;;;;;5.10;2.60;;;18.00;99.90;;;17.29;69.33;98044.75;5058722;28;20793;-76
2022/07/10 06:31:06;;;;;;;7.75;3.10;;;18.00;99.90;;;17.33;69.14;98056.53;5059782;28;20408;-76
2022/07/10 06:33:32;;;;;;;4.32;2.10;;;18.00;99.90;;;17.37;68.72;98056.75;5058128;28;20751;-76
2022/07/10 06:35:58;;;;;;;5.13;2.60;;;18.00;99.90;;;17.39;68.60;98063.44;5059731;28;20415;-75
2022/07/10 06:38:24;;;;;;;6.97;2.72;;;18.10;99.90;;;17.40;67.74;98067.72;5059143;28;20432;-78
2022/07/10 06:40:51;;;;;;;6.15;2.78;;;18.10;99.20;;;17.38;67.70;98064.50;5061526;28;20408;-76
2022/07/10 06:43:17;;;;;;;5.15;2.45;;;18.10;98.80;;;17.32;67.32;98067.50;5062002;28;20425;-77
2022/07/10 06:45:45;;;;;;;8.82;2.90;;;18.10;98.50;;;17.29;66.95;98066.16;5062992;28;20419;-75
2022/07/10 06:48:11;;;;;;;5.05;3.13;;;18.00;97.80;;;17.28;67.14;98056.56;5063955;28;20788;-77
2022/07/10 06:50:37;;;;;;;5.50;2.97;;;18.00;97.60;;;17.19;66.49;98063.56;5061469;28;20465;-78
2022/07/10 06:53:05;;;;;;;8.10;2.50;;;17.90;96.80;;;17.22;66.70;98065.69;5052840;28;20421;-77
2022/07/10 06:55:32;;;;;;;5.97;2.47;;;17.90;97.00;;;17.22;66.62;98064.88;5050412;28;20500;-78
2022/07/10 06:57:58;;;;;;;5.20;2.60;;;17.90;96.80;;;17.19;66.66;98065.44;5056420;28;20408;-77
2022/07/10 07:00:25;;;;;;;3.67;2.03;;;17.90;96.70;;;17.18;66.58;98074.56;5061168;28;20405;-77
2022/07/10 07:02:52;;;;;;;4.88;2.20;;;17.90;96.60;;;17.15;66.30;98075.91;5061025;28;20938;-78
2022/07/10 07:05:18;;;;;;;5.82;2.25;;;17.90;96.00;;;17.14;65.29;98076.19;5066216;28;20392;-79
2022/07/10 07:07:44;;;;;;;4.55;2.20;;;17.80;95.00;;;17.12;65.77;98070.31;5065539;28;20981;-77
2022/07/10 07:10:11;;;;;;;6.55;2.20;;;17.80;95.20;;;17.15;65.60;98064.38;5059885;28;20450;-80
2022/07/10 07:12:38;;;;;;;5.70;2.15;;;17.90;95.10;;;17.19;65.70;98076.16;5065137;28;20399;-79
2022/07/10 07:15:06;;;;;;;3.97;2.13;;;17.80;95.10;;;17.23;65.60;98083.34;5062990;28;20412;-79
2022/07/10 07:17:45;;;;;;;6.47;2.33;;;17.90;95.20;;;17.42;63.06;98078.94;5050737;28;20426;-80
2022/07/10 07:23:09;;;;;;;6.07;1.85;;;18.00;93.20;;;17.29;64.50;98082.22;5066210;28;20390;-76
2022/07/10 07:25:36;;;;;;;3.20;1.90;;;18.00;93.50;;;17.31;64.78;98088.09;5068256;28;20468;-76
2022/07/10 07:28:02;;;;;;;5.00;2.10;;;18.00;93.90;;;17.30;64.16;98094.53;5063297;28;20418;-74
2022/07/10 07:30:28;;;;;;;4.72;2.20;;;18.00;93.20;;;17.35;63.95;98096.41;5067808;28;20415;-78
2022/07/10 07:32:54;;;;;;;4.77;2.03;;;18.00;93.00;;;17.39;63.88;98106.25;5067935;28;21142;-76
2022/07/10 07:35:21;;;;;;;3.53;1.93;;;18.10;92.80;;;17.46;62.82;98092.56;5071073;28;20415;-77
2022/07/10 07:37:49;;;;;;;5.47;1.73;;;18.10;91.90;;;17.49;62.67;98100.06;5054198;28;20441;-78
2022/07/10 07:40:23;;;;;;;4.80;1.95;;;18.20;91.50;;;17.54;61.21;98094.66;5071337;28;20404;-78
2022/07/10 07:42:49;;;;;;;3.13;1.87;;;18.30;90.30;;;17.64;61.48;98093.81;5064985;28;20409;-78
2022/07/10 07:45:15;;;;;;;4.03;1.60;;;18.30;90.20;;;17.71;60.80;98089.75;5070959;28;20396;-79
2022/07/10 07:47:46;;;;;;;4.03;1.70;;;18.40;89.20;;;17.77;60.51;98091.31;5069622;28;20438;-79
2022/07/10 07:50:13;;;;;;;3.60;1.42;;;18.50;88.60;;;17.85;60.56;98081.88;5071498;28;20414;-79
2022/07/10 07:52:41;;;;;;;4.72;1.90;;;18.50;88.30;;;17.94;60.39;98080.19;5066432;28;20444;-78
2022/07/10 07:55:09;;;;;;;2.63;1.50;;;18.60;88.00;;;18.06;60.00;98085.97;5071817;28;20423;-79
2022/07/10 07:57:35;;;;;;;5.75;2.03;;;18.70;87.40;;;18.19;58.69;98085.28;5073218;28;20407;-78
2022/07/10 08:00:01;;;;;;;3.97;1.70;;;18.80;84.80;;;18.38;58.76;98080.03;5053166;28;20482;-80
2022/07/10 08:02:27;;;;;;;5.63;1.65;;;19.00;84.80;;;18.43;57.16;98088.00;5071522;28;20660;-79
2022/07/10 08:04:53;;;;;;;4.65;1.70;;;19.00;82.20;;;18.42;56.79;98093.66;5068250;28;20415;-80
2022/07/10 08:07:18;;;;;;;5.97;1.90;;;19.10;81.00;;;18.39;56.82;98091.56;5066266;28;20461;-79
2022/07/10 08:09:46;;;;;;;6.13;1.60;;;19.10;81.20;;;18.40;56.47;98083.22;5051886;28;20399;-79
2022/07/10 08:12:12;;;;;;;5.90;1.65;;;19.00;80.30;;;18.42;55.72;98089.09;5066913;28;20477;-79
2022/07/10 08:14:38;;;;;;;4.70;1.40;;;19.10;78.80;;;18.50;55.26;98083.09;5067838;28;20415;-78
2022/07/10 08:17:04;;;;;;;2.88;1.38;;;19.10;78.10;;;18.62;55.15;98071.22;5069148;28;20417;-76
2022/07/10 08:19:30;;;;;;;3.58;1.60;;;19.30;77.60;;;18.60;54.89;98076.88;5053794;28;20423;-77
2022/07/10 08:21:56;;;;;;;5.33;1.57;;;19.30;77.10;;;18.62;55.48;98069.34;5072614;28;20404;-78
2022/07/10 08:24:22;;;;;;;3.63;1.53;;;19.30;77.60;;;18.54;55.13;98077.97;5072717;28;20769;-79
2022/07/10 08:26:50;;;;;;;5.47;1.67;;;19.30;77.60;;;18.57;54.93;98082.78;5066508;28;20412;-80
2022/07/10 08:29:16;;;;;;;6.10;1.70;;;19.20;76.90;;;18.66;55.24;98080.28;5050117;28;20417;-80
2022/07/10 08:31:42;;;;;;;4.20;1.60;;;19.30;77.10;;;18.76;54.23;98070.25;5049599;28;20455;-79
2022/07/10 08:34:08;;;;;;;4.97;1.60;;;19.40;75.90;;;18.76;54.41;98067.56;5050883;28;20401;-80
2022/07/10 08:36:34;;;;;;;6.47;1.70;;;19.40;75.70;;;18.72;54.86;98060.38;5051226;28;21034;-80
2022/07/10 08:39:00;;;;;;;3.72;1.58;;;19.40;76.00;;;18.78;55.29;98057.34;5060109;28;20407;-79
2022/07/10 08:41:27;;;;;;;3.70;1.45;;;19.40;76.60;;;18.84;52.95;98063.44;5077893;28;20414;-79
2022/07/10 08:43:54;;;;;;;3.22;1.42;;;19.50;73.70;;;18.91;54.08;98056.66;5078030;28;20410;-79
2022/07/10 08:46:20;;;;;;;4.22;1.60;;;19.50;74.90;;;19.00;53.89;98054.13;5070866;28;20457;-79
2022/07/10 08:48:48;;;;;;;4.30;1.50;;;19.70;74.90;;;19.13;53.76;98055.28;5085946;28;20407;-79
2022/07/10 08:51:23;;;;;;;5.60;1.30;;;19.70;74.40;;;19.32;52.74;98054.19;5070338;28;20404;-80
2022/07/10 08:53:51;;;;;;;3.00;1.35;;;19.90;73.10;;;19.39;52.14;98053.03;5070675;28;20423;-80
2022/07/10 08:56:17;;;;;;;3.97;1.43;;;20.00;72.30;;;19.41;51.62;98050.84;5077695;28;20420;-80
2022/07/10 08:58:43;;;;;;;2.93;1.17;;;20.00;71.20;;;19.46;51.90;98054.25;5051986;28;20414;-80
2022/07/10 09:01:10;;;;;;;2.78;1.35;;;20.10;71.70;;;19.55;52.31;98054.41;5070358;28;20889;-79
2022/07/10 09:03:38;;;;;;;2.25;1.30;;;20.10;72.20;;;19.77;52.07;98060.00;5052795;28;20407;-80
2022/07/10 09:06:05;;;;;;;2.78;1.30;;;20.30;71.90;;;19.98;51.68;98063.94;5070939;28;20400;-79
2022/07/10 09:08:32;;;;;;;4.43;1.58;;;20.50;71.30;;;19.98;47.96;98061.22;5070293;28;20773;-79
2022/07/10 09:11:14;;;;;;;2.03;1.05;;;20.70;66.50;;;19.91;48.76;98062.72;5070324;28;20425;-79
2022/07/10 09:13:49;;;;;;;4.00;1.52;;;20.60;67.00;;;19.79;49.37;98063.16;5070583;28;20399;-79
2022/07/10 09:16:23;;;;;;;3.05;1.02;;;20.40;67.50;;;19.67;49.22;98070.88;5070521;28;20849;-80
2022/07/10 09:18:49;;;;;;;3.83;1.40;;;20.30;67.60;;;19.71;49.75;98061.13;5069948;28;20399;-79
2022/07/10 09:21:16;;;;;;;2.35;1.02;;;20.30;68.20;;;19.84;49.89;98063.09;5070342;28;20912;-80
2022/07/10 09:23:42;;;;;;;5.63;1.40;;;20.40;68.40;;;19.90;48.21;98071.84;5070467;28;20403;-80
2022/07/10 09:26:08;;;;;;;6.72;1.85;;;20.50;66.80;;;19.99;45.50;98070.09;5070287;28;20853;-78
2022/07/10 09:28:34;;;;;;;4.40;1.50;;;20.50;62.70;;;19.63;47.25;98076.03;5069969;28;20438;-79
2022/07/10 09:31:00;;;;;;;5.68;1.35;;;20.40;63.80;;;19.50;47.89;98070.59;5070177;28;20400;-79
2022/07/10 09:33:33;;;;;;;6.43;1.48;;;20.20;65.20;;;19.63;49.55;98084.09;5070023;28;20913;-79
2022/07/10 09:36:05;;;;;;;3.38;1.30;;;20.20;67.20;;;19.81;49.02;98070.94;5078806;22;20433;-77
2022/07/10 09:38:56;;;;;;;3.80;1.70;;;20.40;66.90;;;19.89;48.61;98067.56;5029871;28;20430;-78
2022/07/10 09:41:28;;;;;;;5.75;1.10;;;20.50;66.10;;;20.05;48.74;98074.28;5030091;28;20489;-78
2022/07/10 09:43:56;;;;;;;3.40;1.30;;;20.60;66.40;;;20.26;48.65;98070.13;5030189;28;20473;-78
2022/07/10 09:46:24;;;;;;;4.47;1.50;;;20.80;66.40;;;20.49;44.64;98071.09;5021823;28;20775;-78
2022/07/10 09:49:04;;;;;;;2.92;1.30;;;21.00;61.30;;;20.56;46.63;98071.50;5010021;28;20401;-78
2022/07/10 09:51:33;;;;;;;4.20;1.40;;;21.20;63.40;;;20.58;45.47;98066.63;5010434;28;20432;-78
2022/07/10 09:54:02;;;;;;;3.23;1.20;;;21.20;61.90;;;20.52;45.84;98072.41;5010243;28;20463;-78
2022/07/10 09:56:38;;;;;;;2.97;1.25;;;21.10;63.10;;;20.31;45.74;98080.78;5009536;28;20489;-77
2022/07/10 09:59:09;;;;;;;3.22;1.27;;;21.00;62.60;;;20.45;46.21;98078.16;5009144;28;20405;-77
2022/07/10 10:01:37;;;;;;;3.25;1.35;;;21.00;62.90;;;20.67;46.98;98069.41;5016497;28;20478;-78
2022/07/10 10:04:06;;;;;;;4.05;1.30;;;21.20;63.70;;;20.81;45.89;98073.69;5019111;28;20403;-78
2022/07/10 10:06:36;;;;;;;4.90;1.40;;;21.40;62.40;;;20.91;44.58;98075.34;5018109;28;20429;-78
2022/07/10 10:09:07;;;;;;;4.60;1.52;;;21.40;60.40;;;20.84;44.51;98083.03;5019394;28;20408;-78
2022/07/10 10:11:36;;;;;;;3.15;1.20;;;21.40;60.40;;;20.78;45.40;98076.97;5021446;28;20392;-79
2022/07/10 10:14:06;;;;;;;3.50;1.33;;;21.40;61.40;;;20.82;46.09;98085.25;5018591;28;20499;-80
2022/07/10 10:16:34;;;;;;;4.07;1.60;;;21.40;62.20;;;20.96;43.93;98069.09;5017984;28;20425;-79
2022/07/10 10:21:49;;;;;;;2.65;1.02;;;21.50;61.10;;;21.01;45.31;98063.59;5018251;28;20469;-78
2022/07/10 10:24:16;;;;;;;3.70;1.30;;;21.60;60.90;;;21.17;45.28;98052.22;5017747;28;20495;-78